Flight Track Log - Related Links

Times and Time Zones

All times are in EDT time to prevent confusion due to time zone crossing. See the SWA508 flight status page for this flight to view local times or setup timezone preferences in your user account.


Time Position Orientation Groundspeed Altitude Reporting Facility
EDT Latitude Longitude Course Direction KTS MPH feet Rate Location/Type
Thu 07:33:10 PM 44.8953 -93.2525 273° West 184 212 1,900  Level FAA TRACON SMA TRACON (SMA)
Thu 07:33:50 PM 44.8975 -93.3114 257° West 228 262 3,200 2,325 Climbing FAA TRACON SMA TRACON (SMA)
Thu 07:34:30 PM 44.8867 -93.3783 210° Southwest 262 302 5,000 2,850 Climbing FAA TRACON SMA TRACON (SMA)
Thu 07:35:10 PM 44.8494 -93.4089 154° Southeast 277 319 7,000 3,000 Climbing FAA TRACON SMA TRACON (SMA)
Thu 07:35:50 PM 44.8022 -93.3767 139° Southeast 278 320 9,000 2,519 Climbing FAA TRACON SMA TRACON (SMA)
Thu 07:36:31 PM 44.7578 -93.3231 139° Southeast 310 357 10,400 1,725 Climbing FAA TRACON SMA TRACON (SMA)
Thu 07:37:10 PM 44.7061 -93.2603 139° Southeast 361 415 11,300 1,650 Climbing FAA TRACON SMA TRACON (SMA)
Thu 07:37:51 PM 44.6553 -93.1983 139° Southeast 396 456 12,600 2,250 Climbing FAA TRACON SMA TRACON (SMA)
Thu 07:38:30 PM 44.5958 -93.1250 139° Southeast 413 475 14,300 2,658 Climbing FAA TRACON SMA TRACON (SMA)
Thu 07:39:10 PM 44.5339 -93.0503 139° Southeast 425 489 16,100 2,475 Climbing FAA TRACON SMA TRACON (SMA)
Thu 07:39:50 PM 44.4781 -92.9819 139° Southeast 435 501 17,600 2,175 Climbing FAA TRACON SMA TRACON (SMA)
Thu 07:40:30 PM 44.4133 -92.9036 139° Southeast 444 511 19,000 1,926 Climbing FAA TRACON SMA TRACON (SMA)
Thu 07:41:11 PM 44.3467 -92.8225 137° Southeast 461 531 20,200 1,875 Climbing FAA TRACON SMA TRACON (SMA)
Thu 07:41:50 PM 44.2872 -92.7458 143° Southeast 473 544 21,500 2,024 Climbing FAA TRACON SMA TRACON (SMA)
Thu 07:42:34 PM 44.2061 -92.6592 147° Southeast 481 554 23,000 1,902 Climbing FAA TRACON SMA TRACON (SMA)
Thu 07:43:12 PM 44.1364 -92.5950 146° Southeast 489 563 24,100 1,737 Climbing FAA TRACON SMA TRACON (SMA)
Thu 07:43:50 PM 44.0664 -92.5292 151° Southeast 495 570 25,200 1,677 Climbing FAA TRACON SMA TRACON (SMA)
Thu 07:44:45 PM 43.9519 -92.4417 146° Southeast 503 579 26,700 1,513 Climbing Minneapolis Center
Thu 07:45:45 PM 43.8489 -92.3456 148° Southeast 503 579 28,100 1,714 Climbing Minneapolis Center
Thu 07:46:44 PM 43.7208 -92.2331 148° Southeast 504 580 30,100 1,462 Climbing Minneapolis Center
Thu 07:47:44 PM 43.5989 -92.1267 146° Southeast 504 580 31,000 400 Climbing Minneapolis Center
Thu 07:48:44 PM 43.4828 -92.0206 147° Southeast 504 580 30,900  Descending Minneapolis Center
Thu 07:50:15 PM 43.3169 -91.8750 146° Southeast 503 579 31,000 40 Climbing Chicago Center
Thu 07:51:15 PM 43.2006 -91.7678 146° Southeast 503 579 31,000  Level Chicago Center
Thu 07:52:15 PM 43.0797 -91.6578 147° Southeast 510 587 31,000  Level Chicago Center
Thu 07:53:15 PM 42.9569 -91.5483 147° Southeast 521 600 31,000  Level Chicago Center
Thu 07:54:15 PM 42.8358 -91.4422 147° Southeast 521 600 31,000 -300 Level Chicago Center
Thu 07:55:15 PM 42.7147 -91.3364 148° Southeast 521 600 30,400 -750 Descending Chicago Center
Thu 07:56:15 PM 42.5917 -91.2308 148° Southeast 521 600 29,500 -900 Descending Chicago Center
Thu 07:57:15 PM 42.4703 -91.1261 148° Southeast 521 600 28,600 -1,350 Descending Chicago Center
Thu 07:58:15 PM 42.3447 -91.0214 147° Southeast 521 600 26,800 -2,100 Descending Chicago Center
Thu 07:59:15 PM 42.2294 -90.9203 148° Southeast 514 592 24,400 -1,400 Descending Chicago Center
Thu 08:00:15 PM 42.1158 -90.8250 148° Southeast 501 577 24,000 -200 Descending Chicago Center
Thu 08:01:15 PM 42.0044 -90.7303 148° Southeast 484 557 24,000 -400 Level Chicago Center
Thu 08:02:15 PM 41.8869 -90.6328 135° Southeast 489 563 23,200 -450 Descending Chicago Center
Thu 08:03:15 PM 41.7781 -90.4858 132° Southeast 494 568 23,100 -100 Descending Chicago Center
Thu 08:04:15 PM 41.6833 -90.3453 133° Southeast 499 574 23,000 -50 Descending Chicago Center
Thu 08:05:15 PM 41.5947 -90.2161 132° Southeast 500 575 23,000  Level Chicago Center
Thu 08:06:15 PM 41.5061 -90.0847 133° Southeast 486 559 23,000 -700 Level Chicago Center
Thu 08:07:15 PM 41.4172 -89.9564 133° Southeast 480 552 21,600 -1,450 Descending Chicago Center
Thu 08:08:15 PM 41.3281 -89.8283 132° Southeast 475 547 20,100 -2,150 Descending Chicago Center
Thu 08:09:15 PM 41.2389 -89.6978 124° Southeast 475 547 17,300 -2,850 Descending Chicago Center
Thu 08:10:15 PM 41.1683 -89.5594 81° East 469 540 14,400 -1,950 Descending Chicago Center
Thu 08:11:15 PM 41.1853 -89.4189 66° East 407 468 13,400 -1,000 Descending Chicago Center
Thu 08:12:15 PM 41.2247 -89.3003 66° East 372 428 12,400 -900 Descending Chicago Center
Thu 08:13:15 PM 41.2644 -89.1786 66° East 364 419 11,600 -1,000 Descending Chicago Center
Thu 08:14:15 PM 41.3036 -89.0625 66° East 352 405 10,400 -1,000 Descending Chicago Center
Thu 08:15:15 PM 41.3389 -88.9572 66° East 335 386 9,600 -800 Descending Chicago Center
Thu 08:16:15 PM 41.3717 -88.8575 67° East 307 353 8,800 -850 Descending Chicago Center
Thu 08:17:15 PM 41.4025 -88.7603 66° East 292 336 7,900 -1,100 Descending Chicago Center
Thu 08:18:15 PM 41.4314 -88.6742 67° East 282 325 6,600 -950 Descending Chicago Center
Thu 08:19:15 PM 41.4619 -88.5797 70° East 276 318 6,000 -300 Descending Chicago Center
Thu 08:20:15 PM 41.4883 -88.4850 81° East 276 318 6,000 -100 Level Chicago Center
Thu 08:21:15 PM 41.5000 -88.3850 82° East 276 318 5,800 -450 Descending Chicago Center
Thu 08:22:15 PM 41.5117 -88.2769 83° East 271 312 5,100 -700 Descending Chicago Center
Thu 08:23:15 PM 41.5211 -88.1769 70° East 271 312 4,400 -550 Descending Chicago Center
Thu 08:24:15 PM 41.5453 -88.0875 58° Northeast 265 305 4,000 -200 Descending Chicago Center
Thu 08:25:15 PM 41.5817 -88.0092 43° Northeast 252 290 4,000  Level Chicago Center
Thu 08:26:15 PM 41.6311 -87.9469 41° Northeast 240 276 4,000 -100 Level Chicago Center
Thu 08:27:15 PM 41.6742 -87.8961 39° Northeast 225 259 3,800 -619 Descending Chicago Center
Thu 08:28:21 PM 41.7167 -87.8500 56° Northeast 163 188 2,700 -952 Descending Chicago TRACON
Thu 08:29:21 PM 41.7333 -87.8167 37° Northeast 143 165 1,800 -750 Descending Chicago TRACON
Thu 08:30:21 PM 41.7667 -87.7833 37° Northeast 119 137 1,200 -600 Descending Chicago TRACON

Login

Don't have an account? Register now (free) for customized features, flight alerts, and more!